createdAt,value
2023-10-09T00:02:30.085Z,101511.28
2023-10-09T00:05:24.248Z,101514.97
2023-10-09T00:08:10.392Z,101505.78
2023-10-09T00:10:55.530Z,101513.28
2023-10-09T00:13:52.148Z,101508.25
2023-10-09T00:16:41.617Z,101510.16
2023-10-09T00:19:32.364Z,101500.47
2023-10-09T00:22:39.150Z,101506.69
2023-10-09T00:25:29.863Z,101514.00
2023-10-09T00:28:22.583Z,101509.00
2023-10-09T00:31:08.978Z,101511.03
2023-10-09T00:33:55.743Z,101507.19
2023-10-09T00:36:51.165Z,101500.69
2023-10-09T00:39:36.867Z,101500.53
2023-10-09T00:42:37.668Z,101504.50
2023-10-09T00:45:27.576Z,101492.53
2023-10-09T00:48:16.100Z,101493.81
2023-10-09T00:51:01.886Z,101487.50
2023-10-09T00:53:52.031Z,101470.81
2023-10-09T00:56:42.921Z,101472.19
2023-10-09T00:59:28.640Z,101471.34
2023-10-09T01:02:19.585Z,101478.22
2023-10-09T01:05:12.641Z,101471.56
2023-10-09T01:07:59.650Z,101473.03
2023-10-09T01:10:57.258Z,101466.81
2023-10-09T01:13:53.675Z,101469.19
2023-10-09T01:16:42.570Z,101465.53
2023-10-09T01:19:31.817Z,101451.34
2023-10-09T01:22:18.706Z,101454.53
2023-10-09T01:25:07.054Z,101454.56
2023-10-09T01:27:53.187Z,101459.88
2023-10-09T01:30:42.579Z,101453.72
2023-10-09T01:33:29.678Z,101460.56
2023-10-09T01:36:16.339Z,101460.25
2023-10-09T01:39:11.723Z,101456.88
2023-10-09T01:42:00.289Z,101451.22
2023-10-09T01:44:45.087Z,101441.72
2023-10-09T01:47:32.673Z,101432.03
2023-10-09T01:50:23.145Z,101434.91
2023-10-09T01:53:18.130Z,101430.22
2023-10-09T01:56:15.870Z,101427.03
2023-10-09T01:59:06.717Z,101425.91
2023-10-09T02:01:55.753Z,101426.03
2023-10-09T02:04:42.071Z,101428.22
2023-10-09T02:07:35.477Z,101440.25
2023-10-09T02:10:26.956Z,101432.41
2023-10-09T02:13:12.302Z,101447.06
2023-10-09T02:16:16.830Z,101437.88
2023-10-09T02:19:07.777Z,101445.34
2023-10-09T02:21:54.565Z,101435.34
2023-10-09T02:24:49.648Z,101428.19
2023-10-09T02:27:53.368Z,101426.19
2023-10-09T02:30:43.480Z,101430.69
2023-10-09T02:33:29.465Z,101442.53
2023-10-09T02:36:14.879Z,101432.69
2023-10-09T02:39:00.284Z,101436.22
2023-10-09T02:41:50.848Z,101451.19
2023-10-09T02:44:41.864Z,101445.03
2023-10-09T02:47:32.601Z,101437.03
2023-10-09T02:50:21.804Z,101427.03
2023-10-09T02:53:11.795Z,101417.00
2023-10-09T02:56:13.666Z,101431.38
2023-10-09T02:59:06.741Z,101417.56
2023-10-09T03:01:55.202Z,101432.84
2023-10-09T03:04:43.923Z,101428.38
2023-10-09T03:07:29.049Z,101431.69
2023-10-09T03:10:14.076Z,101414.41
2023-10-09T03:13:02.776Z,101425.53
2023-10-09T03:15:49.372Z,101427.72
2023-10-09T03:18:34.609Z,101424.22
2023-10-09T03:21:21.012Z,101422.19
2023-10-09T03:24:06.173Z,101411.53
2023-10-09T03:26:51.287Z,101423.34
2023-10-09T03:29:36.378Z,101422.38
2023-10-09T03:32:21.323Z,101419.50
2023-10-09T03:35:07.827Z,101416.38
2023-10-09T03:38:00.147Z,101418.69
2023-10-09T03:40:49.233Z,101418.84
2023-10-09T03:43:40.172Z,101408.16
2023-10-09T03:46:34.039Z,101414.19
2023-10-09T03:49:24.443Z,101418.22
2023-10-09T03:52:10.532Z,101419.41
2023-10-09T03:54:56.319Z,101414.88
2023-10-09T03:57:46.256Z,101414.38
2023-10-09T04:00:32.330Z,101415.84
2023-10-09T04:03:17.991Z,101415.34
2023-10-09T04:06:05.309Z,101422.16
2023-10-09T04:08:53.029Z,101415.53
2023-10-09T04:11:38.694Z,101408.81
2023-10-09T04:14:34.635Z,101411.34
2023-10-09T04:17:26.007Z,101407.66
2023-10-09T04:20:17.503Z,101400.16
2023-10-09T04:23:07.466Z,101406.16
2023-10-09T04:25:53.912Z,101406.28
2023-10-09T04:28:43.647Z,101391.19
2023-10-09T04:31:33.528Z,101392.66
2023-10-09T04:34:23.367Z,101386.84
2023-10-09T04:37:28.810Z,101386.91
2023-10-09T04:40:16.070Z,101379.09
2023-10-09T04:43:00.982Z,101375.78
2023-10-09T04:46:05.141Z,101365.53
2023-10-09T04:48:53.542Z,101366.28
2023-10-09T04:51:56.880Z,101362.22
2023-10-09T04:55:01.984Z,101356.97
2023-10-09T04:58:02.621Z,101358.50
2023-10-09T05:00:48.201Z,101363.06
2023-10-09T05:03:44.825Z,101350.38
2023-10-09T05:06:56.943Z,101351.38
2023-10-09T05:09:56.965Z,101360.13
2023-10-09T05:12:47.775Z,101368.53
2023-10-09T05:15:35.919Z,101365.56
2023-10-09T05:18:28.347Z,101364.84
2023-10-09T05:21:13.273Z,101355.78
2023-10-09T05:24:15.533Z,101359.78
2023-10-09T05:27:19.854Z,101364.75
2023-10-09T05:30:24.627Z,101374.63
2023-10-09T05:33:28.498Z,101366.22
2023-10-09T05:36:25.874Z,101353.88
2023-10-09T05:39:43.101Z,101344.63
2023-10-09T05:42:38.218Z,101349.53
2023-10-09T05:45:42.761Z,101352.84
2023-10-09T05:48:40.039Z,101354.78
2023-10-09T05:51:44.849Z,101356.03
2023-10-09T05:54:48.454Z,101355.22
2023-10-09T05:57:53.696Z,101360.94
2023-10-09T06:00:57.584Z,101353.38
2023-10-09T06:04:18.346Z,101357.69
2023-10-09T06:07:15.416Z,101358.25
2023-10-09T06:10:11.635Z,101361.09
2023-10-09T06:13:04.961Z,101352.69
2023-10-09T06:16:10.454Z,101347.84
2023-10-09T06:19:08.971Z,101350.97
2023-10-09T06:22:04.626Z,101356.88
2023-10-09T06:24:55.997Z,101343.59
2023-10-09T06:27:48.562Z,101361.78
2023-10-09T06:30:36.829Z,101368.06
2023-10-09T06:33:30.468Z,101393.72
2023-10-09T06:36:19.227Z,101389.09
2023-10-09T06:39:23.380Z,101383.31
2023-10-09T06:42:31.121Z,101392.44
2023-10-09T06:45:19.607Z,101399.19
2023-10-09T06:48:30.979Z,101394.84
2023-10-09T06:51:28.455Z,101395.31
2023-10-09T06:54:17.170Z,101407.13
2023-10-09T06:57:14.182Z,101409.16
2023-10-09T07:00:19.158Z,101413.94
2023-10-09T07:03:12.626Z,101422.19
2023-10-09T07:06:24.764Z,101426.25
2023-10-09T07:09:10.067Z,101439.53
2023-10-09T07:11:55.254Z,101446.75
2023-10-09T07:14:40.733Z,101456.06
2023-10-09T07:17:35.126Z,101456.91
2023-10-09T07:20:38.868Z,101455.88
2023-10-09T07:23:24.052Z,101461.97
2023-10-09T07:26:19.376Z,101470.13
2023-10-09T07:29:22.704Z,101460.78
2023-10-09T07:32:13.710Z,101465.31
2023-10-09T07:34:59.889Z,101463.88
2023-10-09T07:37:52.009Z,101463.34
2023-10-09T07:40:56.419Z,101461.09
2023-10-09T07:43:51.890Z,101461.28
2023-10-09T07:47:14.523Z,101458.25
2023-10-09T07:50:00.391Z,101450.09
2023-10-09T07:52:50.836Z,101459.34
2023-10-09T07:55:40.466Z,101453.81
2023-10-09T07:58:26.680Z,101466.06
2023-10-09T08:01:23.753Z,101465.63
2023-10-09T08:04:15.730Z,101464.03
2023-10-09T08:08:02.511Z,101468.38
2023-10-09T08:10:14.934Z,101462.75
2023-10-09T08:13:00.320Z,101467.88
2023-10-09T08:15:54.178Z,101464.56
2023-10-09T08:18:46.737Z,101464.03
2023-10-09T08:22:03.828Z,101476.75
2023-10-09T08:24:58.242Z,101474.06
2023-10-09T08:27:55.514Z,101468.91
2023-10-09T08:31:03.288Z,101469.84
2023-10-09T08:36:52.970Z,101459.03
2023-10-09T08:39:38.130Z,101465.50
2023-10-09T08:42:26.502Z,101466.91
2023-10-09T08:45:15.650Z,101453.69
2023-10-09T08:48:05.895Z,101444.16
2023-10-09T08:50:50.786Z,101451.97
2023-10-09T08:53:36.143Z,101431.66
2023-10-09T08:56:25.914Z,101420.53
2023-10-09T08:59:11.932Z,101454.25
2023-10-09T09:02:00.951Z,101463.31
2023-10-09T09:04:46.986Z,101470.22
2023-10-09T09:07:40.283Z,101481.19
2023-10-09T09:10:37.052Z,101492.84
2023-10-09T09:13:22.063Z,101492.09
2023-10-09T09:16:14.487Z,101488.09
2023-10-09T09:19:10.043Z,101467.16
2023-10-09T09:22:00.374Z,101452.53
2023-10-09T09:25:04.155Z,101414.19
2023-10-09T09:28:06.848Z,101389.25
2023-10-09T09:30:52.440Z,101406.13
2023-10-09T09:33:44.250Z,101407.97
2023-10-09T09:36:31.792Z,101423.13
2023-10-09T09:39:20.496Z,101432.03
2023-10-09T09:42:08.490Z,101415.38
2023-10-09T09:44:53.595Z,101411.69
2023-10-09T09:47:39.407Z,101403.88
2023-10-09T09:50:30.175Z,101398.09
2023-10-09T09:53:19.247Z,101381.53
2023-10-09T09:56:05.603Z,101377.38
2023-10-09T09:58:54.975Z,101363.94
2023-10-09T10:01:41.278Z,101364.34
2023-10-09T10:04:31.674Z,101355.00
2023-10-09T10:07:18.368Z,101364.25
2023-10-09T10:10:09.498Z,101355.81
2023-10-09T10:13:03.893Z,101369.56
2023-10-09T10:16:10.067Z,101370.22
2023-10-09T10:19:08.149Z,101355.97
2023-10-09T10:21:54.004Z,101354.94
2023-10-09T10:24:58.889Z,101347.44
2023-10-09T10:28:01.509Z,101343.34
2023-10-09T10:30:47.244Z,101331.13
2023-10-09T10:33:57.182Z,101346.16
2023-10-09T10:36:45.457Z,101329.31
2023-10-09T10:39:45.517Z,101336.38
2023-10-09T10:42:36.501Z,101340.94
2023-10-09T10:45:36.808Z,101344.72
2023-10-09T10:48:38.510Z,101346.59
2023-10-09T10:51:23.854Z,101345.09
2023-10-09T10:54:28.753Z,101341.31
2023-10-09T10:57:30.091Z,101354.25
2023-10-09T11:00:35.182Z,101356.59
2023-10-09T11:03:31.611Z,101351.50
2023-10-09T11:06:26.175Z,101353.09
2023-10-09T11:09:22.517Z,101354.13
2023-10-09T11:12:22.701Z,101360.50
2023-10-09T11:15:23.922Z,101363.44
2023-10-09T11:18:14.339Z,101362.91
2023-10-09T11:21:19.945Z,101361.00
2023-10-09T11:24:23.834Z,101361.69
2023-10-09T11:27:17.917Z,101374.97
2023-10-09T11:30:06.773Z,101369.59
2023-10-09T11:32:54.437Z,101373.03
2023-10-09T11:35:39.517Z,101359.75
2023-10-09T11:38:25.311Z,101360.00
2023-10-09T11:41:20.540Z,101356.88
2023-10-09T11:44:06.072Z,101353.09
2023-10-09T11:47:29.725Z,101364.69
2023-10-09T11:50:14.783Z,101361.59
2023-10-09T11:53:20.873Z,101351.03
2023-10-09T11:56:06.031Z,101357.41
2023-10-09T11:58:51.768Z,101354.97
2023-10-09T12:01:38.293Z,101351.91
2023-10-09T12:04:31.317Z,101352.34
2023-10-09T12:07:17.210Z,101359.06
2023-10-09T12:10:02.392Z,101356.47
2023-10-09T12:12:47.615Z,101353.22
2023-10-09T12:15:39.363Z,101341.59
2023-10-09T12:18:25.117Z,101341.44
2023-10-09T12:21:16.691Z,101346.50
2023-10-09T12:24:02.919Z,101344.69
2023-10-09T12:26:49.144Z,101346.63
2023-10-09T12:29:34.123Z,101352.41
2023-10-09T12:32:21.827Z,101346.16
2023-10-09T12:35:18.172Z,101353.78
2023-10-09T12:38:04.297Z,101363.56
2023-10-09T12:40:52.220Z,101359.22
2023-10-09T12:43:40.235Z,101358.69
2023-10-09T12:46:27.063Z,101354.22
2023-10-09T12:49:12.581Z,101339.75
2023-10-09T12:51:58.599Z,101337.31
2023-10-09T12:54:44.188Z,101336.88
2023-10-09T12:57:29.589Z,101333.47
2023-10-09T13:00:26.278Z,101340.53
2023-10-09T13:03:18.872Z,101341.53
2023-10-09T13:06:08.294Z,101355.78
2023-10-09T13:08:53.617Z,101347.13
2023-10-09T13:11:41.568Z,101346.09
2023-10-09T13:14:26.532Z,101342.53
2023-10-09T13:17:12.243Z,101347.38
2023-10-09T13:19:57.596Z,101345.25
2023-10-09T13:22:49.918Z,101352.81
2023-10-09T13:25:40.770Z,101349.94
2023-10-09T13:28:26.065Z,101357.13
2023-10-09T13:31:12.187Z,101362.78
2023-10-09T13:33:57.725Z,101356.63
2023-10-09T13:36:54.028Z,101360.66
2023-10-09T13:39:41.169Z,101357.50
2023-10-09T13:42:26.861Z,101358.34
2023-10-09T13:45:16.747Z,101350.34
2023-10-09T13:48:04.177Z,101347.66
2023-10-09T13:50:58.555Z,101348.56
2023-10-09T13:53:48.889Z,101363.66
2023-10-09T13:56:39.978Z,101369.38
2023-10-09T13:59:27.713Z,101359.56
2023-10-09T14:02:18.871Z,101357.81
2023-10-09T14:05:05.075Z,101352.44
2023-10-09T14:07:50.062Z,101356.19
2023-10-09T14:10:39.841Z,101357.34
2023-10-09T14:13:29.242Z,101359.50
2023-10-09T14:16:25.067Z,101364.09
2023-10-09T14:19:14.209Z,101364.16
2023-10-09T14:21:59.328Z,101349.28
2023-10-09T14:24:46.186Z,101346.97
2023-10-09T14:27:31.305Z,101342.22
2023-10-09T14:30:24.232Z,101355.50
2023-10-09T14:33:13.436Z,101354.34
2023-10-09T14:35:59.249Z,101358.28
2023-10-09T14:38:44.214Z,101357.22
2023-10-09T14:41:34.152Z,101363.00
2023-10-09T14:44:19.402Z,101359.53
2023-10-09T14:47:06.631Z,101362.50
2023-10-09T14:49:54.811Z,101372.03
2023-10-09T14:52:40.756Z,101368.94
2023-10-09T14:55:32.717Z,101365.41
2023-10-09T14:58:18.745Z,101371.22
2023-10-09T15:01:11.146Z,101372.03
2023-10-09T15:03:58.699Z,101371.03
2023-10-09T15:06:43.833Z,101367.75
2023-10-09T15:09:32.505Z,101370.69
2023-10-09T15:12:18.021Z,101361.56
2023-10-09T15:15:05.090Z,101374.44
2023-10-09T15:17:50.299Z,101368.03
2023-10-09T15:20:36.509Z,101376.13
2023-10-09T15:23:21.947Z,101366.56
2023-10-09T15:26:08.006Z,101367.03
2023-10-09T15:28:53.277Z,101359.38
2023-10-09T15:31:40.004Z,101352.94
2023-10-09T15:34:25.893Z,101353.16
2023-10-09T15:37:11.062Z,101360.19
2023-10-09T15:39:55.914Z,101352.50
2023-10-09T15:42:42.658Z,101355.22
2023-10-09T15:45:30.099Z,101347.78
2023-10-09T15:48:16.436Z,101347.31
2023-10-09T15:51:01.834Z,101350.28
2023-10-09T15:53:47.390Z,101353.59
2023-10-09T15:56:32.329Z,101350.91
2023-10-09T15:59:17.873Z,101348.97
2023-10-09T16:02:04.426Z,101356.47
2023-10-09T16:04:49.431Z,101357.09
2023-10-09T16:07:34.416Z,101358.53
2023-10-09T16:10:21.560Z,101360.00
2023-10-09T16:13:10.940Z,101358.31
2023-10-09T16:16:00.595Z,101364.53
2023-10-09T16:18:45.526Z,101374.03
2023-10-09T16:21:30.801Z,101373.44
2023-10-09T16:24:16.443Z,101370.91
2023-10-09T16:27:01.504Z,101372.97
2023-10-09T16:29:48.995Z,101376.88
2023-10-09T16:32:34.102Z,101381.22
2023-10-09T16:35:23.021Z,101387.44
2023-10-09T16:38:13.384Z,101384.13
2023-10-09T16:41:02.489Z,101385.56
2023-10-09T16:43:47.560Z,101392.91
2023-10-09T16:46:32.934Z,101394.16
2023-10-09T16:49:19.792Z,101395.97
2023-10-09T16:52:12.033Z,101394.28
2023-10-09T16:54:57.163Z,101403.97
2023-10-09T16:57:42.439Z,101400.81
2023-10-09T17:00:30.523Z,101404.91
2023-10-09T17:03:15.941Z,101418.13
2023-10-09T17:06:05.217Z,101420.13
2023-10-09T17:08:51.911Z,101418.47
2023-10-09T17:11:37.725Z,101421.16
2023-10-09T17:14:27.222Z,101422.13
2023-10-09T17:17:12.869Z,101423.72
2023-10-09T17:19:59.119Z,101416.34
2023-10-09T17:22:44.470Z,101420.78
2023-10-09T17:25:33.484Z,101425.41
2023-10-09T17:28:18.638Z,101430.06
2023-10-09T17:31:04.736Z,101429.56
2023-10-09T17:33:51.128Z,101436.56
2023-10-09T17:36:36.504Z,101436.81
2023-10-09T17:39:27.197Z,101437.91
2023-10-09T17:42:12.191Z,101439.59
2023-10-09T17:44:57.398Z,101440.78
2023-10-09T17:47:42.833Z,101447.63
2023-10-09T17:50:27.723Z,101440.03
2023-10-09T17:53:15.016Z,101446.78
2023-10-09T17:56:00.449Z,101449.03
2023-10-09T17:58:51.145Z,101449.44
2023-10-09T18:01:36.551Z,101452.25
2023-10-09T18:04:21.589Z,101467.69
2023-10-09T18:07:06.445Z,101461.41
2023-10-09T18:09:54.298Z,101471.88
2023-10-09T18:12:39.671Z,101467.53
2023-10-09T18:15:25.090Z,101470.03
2023-10-09T18:18:13.344Z,101479.19
2023-10-09T18:20:58.723Z,101473.00
2023-10-09T18:23:48.149Z,101471.66
2023-10-09T18:26:35.507Z,101469.63
2023-10-09T18:29:20.524Z,101468.88
2023-10-09T18:32:05.885Z,101463.34
2023-10-09T18:34:51.705Z,101464.94
2023-10-09T18:37:40.976Z,101462.91
2023-10-09T18:40:36.702Z,101468.53
2023-10-09T18:43:21.819Z,101465.38
2023-10-09T18:46:11.604Z,101474.81
2023-10-09T18:49:02.099Z,101478.69
2023-10-09T18:51:47.673Z,101478.84
2023-10-09T18:54:37.414Z,101479.41
2023-10-09T18:57:25.034Z,101474.69
2023-10-09T19:00:31.237Z,101474.25
2023-10-09T19:03:17.974Z,101471.75
2023-10-09T19:06:09.157Z,101468.91
2023-10-09T19:08:56.171Z,101462.13
2023-10-09T19:11:41.116Z,101464.44
2023-10-09T19:14:26.903Z,101469.81
2023-10-09T19:17:12.591Z,101458.66
2023-10-09T19:19:58.410Z,101465.28
2023-10-09T19:22:44.637Z,101467.78
2023-10-09T19:25:33.896Z,101467.22
2023-10-09T19:28:19.183Z,101470.19
2023-10-09T19:31:06.372Z,101474.91
2023-10-09T19:33:52.963Z,101472.22
2023-10-09T19:36:39.567Z,101469.19
2023-10-09T19:39:24.807Z,101465.13
2023-10-09T19:42:09.890Z,101469.44
2023-10-09T19:44:55.305Z,101475.53
2023-10-09T19:47:43.988Z,101479.22
2023-10-09T19:50:29.270Z,101481.59
2023-10-09T19:53:15.395Z,101481.16
2023-10-09T19:56:01.144Z,101486.69
2023-10-09T19:58:47.276Z,101483.72
2023-10-09T20:01:32.479Z,101485.00
2023-10-09T20:04:17.423Z,101486.72
2023-10-09T20:07:02.708Z,101485.69
2023-10-09T20:09:47.953Z,101488.84
2023-10-09T20:12:36.169Z,101477.09
2023-10-09T20:15:22.266Z,101482.97
2023-10-09T20:18:08.167Z,101489.00
2023-10-09T20:20:53.042Z,101490.38
2023-10-09T20:23:40.310Z,101500.31
2023-10-09T20:26:26.122Z,101493.84
2023-10-09T20:29:14.575Z,101501.59
2023-10-09T20:32:00.596Z,101499.97
2023-10-09T20:34:45.755Z,101502.19
2023-10-09T20:37:30.862Z,101512.09
2023-10-09T20:40:23.722Z,101512.81
2023-10-09T20:43:08.854Z,101512.66
2023-10-09T20:45:53.877Z,101523.56
2023-10-09T20:48:39.529Z,101522.06
2023-10-09T20:51:24.709Z,101519.69
2023-10-09T20:54:10.649Z,101525.19
2023-10-09T20:56:55.755Z,101519.16
2023-10-09T20:59:43.368Z,101521.72
2023-10-09T21:02:28.736Z,101533.41
2023-10-09T21:05:15.310Z,101534.41
2023-10-09T21:08:00.617Z,101533.75
2023-10-09T21:10:45.377Z,101530.97
2023-10-09T21:13:32.389Z,101531.47
2023-10-09T21:16:17.884Z,101529.53
2023-10-09T21:19:03.144Z,101524.69
2023-10-09T21:21:48.219Z,101534.41
2023-10-09T21:24:33.199Z,101521.09
2023-10-09T21:27:18.098Z,101533.75
2023-10-09T21:30:05.414Z,101527.44
2023-10-09T21:32:51.588Z,101526.59
2023-10-09T21:35:39.132Z,101524.63
2023-10-09T21:38:26.218Z,101529.16
2023-10-09T21:41:18.939Z,101521.47
2023-10-09T21:44:05.101Z,101531.31
2023-10-09T21:46:51.627Z,101528.00
2023-10-09T21:49:36.991Z,101523.34
2023-10-09T21:52:22.319Z,101523.03
2023-10-09T21:55:09.332Z,101526.03
2023-10-09T21:57:56.064Z,101529.22
2023-10-09T22:00:47.696Z,101526.69
2023-10-09T22:03:36.714Z,101525.03
2023-10-09T22:06:24.539Z,101527.56
2023-10-09T22:09:15.220Z,101525.75
2023-10-09T22:12:00.523Z,101527.59
2023-10-09T22:14:45.518Z,101533.91
2023-10-09T22:17:30.881Z,101536.44
2023-10-09T22:20:20.649Z,101527.06
2023-10-09T22:23:12.004Z,101527.41
2023-10-09T22:26:01.212Z,101528.75
2023-10-09T22:28:47.885Z,101518.25
2023-10-09T22:31:39.720Z,101517.56
2023-10-09T22:34:27.142Z,101518.25
2023-10-09T22:37:16.901Z,101519.06
2023-10-09T22:40:02.300Z,101520.44
2023-10-09T22:42:48.330Z,101524.28
2023-10-09T22:45:34.722Z,101516.75
2023-10-09T22:48:20.120Z,101522.59
2023-10-09T22:51:11.661Z,101517.25
2023-10-09T22:54:01.571Z,101517.56
2023-10-09T22:56:47.328Z,101524.59
2023-10-09T22:59:33.333Z,101527.94
2023-10-09T23:02:44.125Z,101534.91
2023-10-09T23:05:32.775Z,101532.25
2023-10-09T23:08:18.381Z,101528.44
2023-10-09T23:11:15.644Z,101525.88
2023-10-09T23:14:19.332Z,101532.19
2023-10-09T23:17:08.149Z,101532.88
2023-10-09T23:19:56.038Z,101528.84
2023-10-09T23:22:50.282Z,101525.22
2023-10-09T23:25:35.330Z,101529.06
2023-10-09T23:28:39.227Z,101528.03
2023-10-09T23:31:26.846Z,101532.03
2023-10-09T23:34:20.355Z,101526.03
2023-10-09T23:37:05.450Z,101528.72
2023-10-09T23:39:59.026Z,101526.84
2023-10-09T23:42:59.441Z,101532.88
2023-10-09T23:45:44.942Z,101536.69
2023-10-09T23:48:34.059Z,101534.69
2023-10-09T23:51:20.529Z,101533.50
2023-10-09T23:54:11.299Z,101537.00
2023-10-09T23:57:00.143Z,101535.66
